Time;durP1;ratioP1;P1;durP2;ratioP2;P2;SDS_P1;SDS_P2;PMS_P1;PMS_P2;Temp;Humidity;BMP_temperature;BMP_pressure;BME280_temperature;BME280_humidity;BME280_pressure;Samples;Min_cycle;Max_cycle;Signal;HPM_P1;HPM_P2
2021/05/07 00:01:03;;;;;;;430.30;275.98;;;;;;;7.03;51.99;96060.72;1762706;81;21152;-61
2021/05/07 00:03:31;;;;;;;313.52;186.88;;;;;;;7.14;52.00;96062.14;1754380;81;21097;-59
2021/05/07 00:06:02;;;;;;;376.65;234.90;;;;;;;7.26;52.75;96066.14;1747797;81;21062;-54
2021/05/07 00:08:38;;;;;;;455.52;294.67;;;;;;;7.26;53.35;96060.98;1753831;81;21632;-59
2021/05/07 00:11:14;;;;;;;405.18;250.25;;;;;;;7.23;51.81;96047.80;1751257;81;21137;-60
2021/05/07 00:13:42;;;;;;;355.62;219.97;;;;;;;7.18;52.36;96046.81;1762732;81;21593;-60
2021/05/07 00:16:11;;;;;;;;;;;;;;;7.17;54.08;96049.48;1765040;81;21830;-58
2021/05/07 00:18:39;;;;;;;212.63;128.17;;;;;;;7.13;54.91;96041.12;1755476;81;20451;-60
2021/05/07 00:21:08;;;;;;;201.18;118.65;;;;;;;7.19;55.19;96035.58;1755202;81;21486;-60
2021/05/07 00:23:36;;;;;;;120.72;68.83;;;;;;;7.28;55.15;96037.19;1758181;81;21045;-59
2021/05/07 00:26:04;;;;;;;78.83;43.33;;;;;;;7.35;54.05;96030.23;1761520;81;21037;-60
2021/05/07 00:28:34;;;;;;;55.67;32.33;;;;;;;7.42;53.54;96038.39;1757413;81;21482;-59
2021/05/07 00:31:02;;;;;;;54.65;32.15;;;;;;;7.44;53.46;96037.82;1764512;81;21061;-63
2021/05/07 00:33:31;;;;;;;61.00;36.65;;;;;;;7.42;53.78;96028.06;1740998;81;21450;-56
2021/05/07 00:35:59;;;;;;;53.87;32.13;;;;;;;7.48;54.31;96010.03;1763760;81;21219;-61
2021/05/07 00:38:28;;;;;;;68.78;37.55;;;;;;;7.53;54.44;95999.78;1753781;81;21180;-61
2021/05/07 00:40:56;;;;;;;31.95;20.08;;;;;;;7.49;55.39;95995.74;1754450;81;21266;-62
2021/05/07 00:43:25;;;;;;;24.57;14.97;;;;;;;7.47;55.20;95990.34;1740373;81;21125;-59
2021/05/07 00:45:53;;;;;;;;;;;;;;;7.33;55.05;95976.58;1763746;81;21208;-61
2021/05/07 00:48:20;;;;;;;;;;;;;;;7.15;55.13;95970.08;1764486;81;20224;-62
2021/05/07 00:50:48;;;;;;;;;;;;;;;7.04;55.36;95963.07;1734985;81;20240;-61
2021/05/07 00:53:17;;;;;;;;;;;;;;;7.02;55.30;95953.30;1742534;81;20570;-61
2021/05/07 00:55:45;;;;;;;;;;;;;;;7.00;55.12;95948.71;1743384;81;20215;-63
2021/05/07 00:58:14;;;;;;;;;;;;;;;6.97;54.82;95950.20;1752129;81;21205;-61
2021/05/07 01:00:42;;;;;;;;;;;;;;;6.97;55.21;95947.63;1740117;81;20246;-61
2021/05/07 01:03:10;;;;;;;;;;;;;;;6.97;54.92;95939.89;1744053;81;20300;-61
2021/05/07 01:05:37;;;;;;;;;;;;;;;6.98;55.10;95950.58;1746788;81;20305;-60
2021/05/07 01:08:09;;;;;;;;;;;;;;;7.04;54.89;95961.78;1749140;81;20312;-60
2021/05/07 01:10:38;;;;;;;;;;;;;;;7.12;54.46;95975.00;1746176;81;21357;-62
2021/05/07 01:13:06;;;;;;;;;;;;;;;7.23;55.14;95982.48;1684518;84;20232;-62
2021/05/07 01:15:37;;;;;;;;;;;;;;;7.34;55.26;95978.72;1691348;84;20515;-61
2021/05/07 01:18:04;;;;;;;;;;;;;;;7.47;55.18;95977.43;1719383;83;20240;-58
2021/05/07 01:20:32;;;;;;;;;;;;;;;7.58;54.88;95978.79;1710580;83;20298;-61
2021/05/07 01:23:04;;;;;;;;;;;;;;;7.69;55.36;95974.20;1738011;81;21498;-61
2021/05/07 01:25:35;;;;;;;;;;;;;;;7.80;55.05;95976.05;1741438;81;20234;-60
2021/05/07 01:28:08;;;;;;;;;;;;;;;7.85;53.61;95967.03;1735386;81;20325;-57
2021/05/07 01:30:37;;;;;;;;;;;;;;;7.88;52.74;95954.39;1735504;81;20689;-60
2021/05/07 01:33:05;;;;;;;;;;;;;;;7.90;52.01;95943.47;1750522;81;20222;-58
2021/05/07 01:35:35;;;;;;;;;;;;;;;7.95;51.62;95926.37;1740854;81;21366;-60
2021/05/07 01:38:04;;;;;;;;;;;;;;;7.99;51.25;95918.74;1740999;81;20230;-60
2021/05/07 01:40:33;;;;;;;;;;;;;;;8.06;51.17;95925.14;1749030;81;20498;-60
2021/05/07 01:43:01;;;;;;;;;;;;;;;8.12;50.62;95922.09;1751480;81;20494;-60
2021/05/07 01:45:32;;;;;;;;;;;;;;;8.16;50.16;95926.13;1742152;81;20243;-60
2021/05/07 01:48:00;;;;;;;;;;;;;;;8.19;50.24;95920.75;1749788;81;21221;-59
2021/05/07 01:50:30;;;;;;;;;;;;;;;8.20;50.21;95918.50;1738306;81;20244;-60
2021/05/07 01:52:58;;;;;;;;;;;;;;;8.21;50.39;95918.87;1763227;81;20564;-59
2021/05/07 01:55:32;;;;;;;;;;;;;;;8.25;50.43;95903.48;1770709;81;20479;-60
2021/05/07 01:58:00;;;;;;;;;;;;;;;8.26;49.95;95907.73;1740432;81;20223;-54
2021/05/07 02:00:28;;;;;;;;;;;;;;;8.28;50.03;95916.67;1753924;81;21193;-60
2021/05/07 02:03:00;;;;;;;;;;;;;;;8.28;50.08;95916.67;1761412;81;20270;-60
2021/05/07 02:05:32;;;;;;;;;;;;;;;8.30;49.87;95917.38;1756750;80;20229;-60
2021/05/07 02:08:05;;;;;;;;;;;;;;;8.34;49.84;95916.68;1753787;81;20490;-57
2021/05/07 02:10:33;;;;;;;;;;;;;;;8.40;49.87;95916.23;1762009;81;20518;-60
2021/05/07 02:13:07;;;;;;;;;;;;;;;8.42;49.80;95920.38;1756746;81;21366;-60
2021/05/07 02:15:36;;;;;;;;;;;;;;;8.49;49.28;95923.37;1758774;81;20219;-60
2021/05/07 02:18:06;;;;;;;;;;;;;;;8.56;49.64;95928.92;1758505;81;20227;-59
2021/05/07 02:20:33;;;;;;;;;;;;;;;8.66;50.60;95928.11;1767000;81;20565;-60
2021/05/07 02:23:01;;;;;;;;;;;;;;;8.75;51.01;95938.72;1721954;83;20314;-59
2021/05/07 02:25:29;;;;;;;;;;;;;;;8.82;51.13;95945.11;1728341;82;21211;-60
2021/05/07 02:27:58;;;;;;;;;;;;;;;8.90;51.35;95953.58;1764801;81;20274;-59
2021/05/07 02:30:28;;;;;;;;;;;;;;;8.92;50.86;95946.08;1753663;81;20488;-60
2021/05/07 02:32:56;;;;;;;;;;;;;;;8.95;50.09;95953.61;1762715;81;20246;-60
2021/05/07 02:35:24;;;;;;;;;;;;;;;8.96;49.53;95944.92;1762586;81;20487;-60
2021/05/07 02:37:51;;;;;;;;;;;;;;;8.98;49.78;95947.37;1755337;80;22272;-59
2021/05/07 02:40:19;;;;;;;;;;;;;;;8.89;49.44;95948.88;1750141;81;20213;-60
2021/05/07 02:42:46;;;;;;;;;;;;;;;8.81;49.22;95959.78;1764082;81;20239;-60
2021/05/07 02:45:14;;;;;;;;;;;;;;;8.79;49.11;95961.67;1774693;80;20227;-59
2021/05/07 02:47:42;;;;;;;;;;;;;;;8.79;49.28;95961.67;1756821;81;20219;-59
2021/05/07 02:50:11;;;;;;;;;;;;;;;8.80;49.36;95962.52;1746654;80;21203;-59
2021/05/07 02:52:44;;;;;;;;;;;;;;;8.81;49.54;95953.80;1769572;80;20302;-59
2021/05/07 02:55:12;;;;;;;;;;;;;;;8.87;49.88;95945.59;1770326;80;20286;-57
2021/05/07 02:57:39;;;;;;;;;;;;;;;8.92;49.88;95949.95;1766065;81;20243;-59
2021/05/07 03:00:10;;;;;;;;;;;;;;;8.93;49.45;95946.44;1758656;80;20250;-59
2021/05/07 03:02:37;;;;;;;;;;;;;;;8.88;49.14;95946.41;1764005;81;21252;-57
2021/05/07 03:05:06;;;;;;;;;;;;;;;8.72;49.53;95933.80;1759709;80;20231;-59
2021/05/07 03:07:33;;;;;;;;;;;;;;;8.64;50.20;95941.64;1764237;81;20222;-60
2021/05/07 03:10:03;;;;;;;;;;;;;;;8.62;50.29;95931.06;1760956;81;21364;-59
2021/05/07 03:12:32;;;;;;;;;;;;;;;8.56;50.49;95925.86;1760785;81;20239;-61
2021/05/07 03:15:01;;;;;;;;;;;;;;;8.46;50.91;95925.70;1735294;82;21290;-59
2021/05/07 03:17:28;;;;;;;;;;;;;;;8.47;51.49;95920.90;1762519;81;20263;-57
2021/05/07 03:19:56;;;;;;;;;;;;;;;8.53;51.15;95923.48;1768870;81;20276;-54
2021/05/07 03:22:23;;;;;;;;;;;;;;;8.58;51.32;95912.81;1762638;81;20239;-55
2021/05/07 03:24:53;;;;;;;;;;;;;;;8.60;50.77;95905.77;1761904;81;20223;-55
2021/05/07 03:27:21;;;;;;;;;;;;;;;8.57;50.97;95898.23;1769986;81;21375;-55
2021/05/07 03:29:53;;;;;;;;;;;;;;;8.58;50.82;95889.55;1764830;81;20210;-54
2021/05/07 03:32:21;;;;;;;;;;;;;;;8.60;51.28;95890.25;1759936;81;20501;-55
2021/05/07 03:34:49;;;;;;;;;;;;;;;8.61;51.47;95890.14;1757490;81;20251;-55
2021/05/07 03:37:18;;;;;;;;;;;;;;;8.66;51.67;95891.09;1751935;81;20285;-54
2021/05/07 03:39:45;;;;;;;;;;;;;;;8.70;51.17;95890.39;1749260;81;21194;-53
2021/05/07 03:42:13;;;;;;;;;;;;;;;8.69;49.37;95885.70;1765503;81;20233;-55
2021/05/07 03:44:40;;;;;;;;;;;;;;;8.63;48.13;95880.53;1764304;80;20231;-55
2021/05/07 03:47:08;;;;;;;;;;;;;;;8.61;48.77;95885.44;1762081;81;20274;-53
2021/05/07 03:49:36;;;;;;;;;;;;;;;8.56;48.78;95881.90;1753165;81;20274;-54
2021/05/07 03:52:04;;;;;;;;;;;;;;;8.53;48.88;95892.94;1754115;81;21386;-54
2021/05/07 03:54:31;;;;;;;;;;;;;;;8.54;49.58;95896.70;1766396;81;20205;-55
2021/05/07 03:56:58;;;;;;;;;;;;;;;8.60;50.23;95898.85;1759902;81;20249;-55
2021/05/07 03:59:26;;;;;;;;;;;;;;;8.66;50.45;95897.56;1764406;81;20218;-54
2021/05/07 04:01:53;;;;;;;;;;;;;;;8.73;50.42;95905.69;1761011;81;20226;-54
2021/05/07 04:04:22;;;;;;;;;;;;;;;8.75;50.46;95907.23;1751582;81;21903;-55
2021/05/07 04:06:49;;;;;;;;;;;;;;;8.80;50.51;95909.01;1761224;81;20625;-55
2021/05/07 04:09:21;;;;;;;;;;;;;;;8.83;50.53;95911.81;1758629;81;20275;-54
2021/05/07 04:11:54;;;;;;;;;;;;;;;8.86;50.36;95923.72;1754044;81;20305;-55
2021/05/07 04:14:18;;;;;;;;;;;;;;;8.83;50.18;95920.88;1762083;81;20296;-55
2021/05/07 04:16:48;;;;;;;;;;;;;;;8.81;50.18;95909.34;1761755;81;20261;-54
2021/05/07 04:19:16;;;;;;;;;;;;;;;8.75;50.72;95912.86;1758027;81;20220;-54
2021/05/07 04:21:45;;;;;;;;;;;;;;;8.72;50.31;95911.34;1757489;81;20217;-54
2021/05/07 04:24:13;;;;;;;;;;;;;;;8.72;50.43;95919.09;1768325;81;20233;-55
2021/05/07 04:26:40;;;;;;;;;;;;;;;8.70;50.42;95917.10;1765592;81;20309;-54
2021/05/07 04:29:08;;;;;;;;;;;;;;;8.71;50.89;95923.09;1755117;81;21212;-55
2021/05/07 04:31:36;;;;;;;;;;;;;;;8.69;50.72;95911.56;1750111;81;20228;-54
2021/05/07 04:34:06;;;;;;;;;;;;;;;8.67;51.07;95905.69;1764534;81;20272;-54
2021/05/07 04:36:33;;;;;;;;;;;;;;;8.71;51.33;95898.04;1761051;81;20492;-53
2021/05/07 04:39:01;;;;;;;;;;;;;;;8.72;51.17;95897.59;1759167;81;20225;-54
2021/05/07 04:41:28;;;;;;;;;;;;;;;8.75;50.88;95897.34;1767364;81;21266;-55
2021/05/07 04:43:57;;;;;;;;;;;;;;;8.72;51.06;95891.94;1759205;81;20216;-55
2021/05/07 04:46:24;;;;;;;;;;;;;;;8.69;51.46;95890.06;1767209;81;20213;-56
2021/05/07 04:48:52;;;;;;;;;;;;;;;8.72;51.77;95895.00;1759650;81;20521;-55
2021/05/07 04:51:19;;;;;;;;;;;;;;;8.76;51.58;95893.83;1749497;81;20232;-55
2021/05/07 04:53:47;;;;;;;;;;;;;;;8.80;51.39;95884.91;1762049;81;23603;-55
2021/05/07 04:56:14;;;;;;;;;;;;;;;8.87;51.28;95875.74;1759192;81;20224;-55
2021/05/07 04:58:41;;;;;;;;;;;;;;;9.01;51.11;95868.22;1750776;81;20233;-54
2021/05/07 05:01:08;;;;;;;;;;;;;;;9.17;50.78;95857.53;1765997;81;20658;-55
2021/05/07 05:03:36;;;;;;;;;;;;;;;9.47;49.91;95859.98;1754088;81;20216;-54
2021/05/07 05:06:04;;;;;;;;;;;;;;;9.80;48.90;95856.52;1762184;81;21614;-55
2021/05/07 05:08:31;;;;;;;;;;;;;;;10.09;47.69;95845.13;1754826;81;20526;-55
2021/05/07 05:11:00;;;;;;;;;;;;;;;10.37;47.09;95838.22;1760218;81;20231;-55
2021/05/07 05:13:27;;;;;;;;;;;;;;;10.94;46.13;95834.83;1753099;81;20500;-55
2021/05/07 05:15:56;;;;;;;;;;;;;;;11.64;44.60;95825.84;1764301;81;20217;-55
2021/05/07 05:18:33;;;;;;;;;;;;;;;12.50;43.16;95813.87;1763939;81;21437;-56
2021/05/07 05:21:03;;;;;;;;;;;;;;;13.44;41.06;95807.83;1735285;81;20755;-55
2021/05/07 05:23:31;;;;;;;;;;;;;;;14.31;39.27;95817.34;1752106;81;20242;-56
2021/05/07 05:25:59;;;;;;;;;;;;;;;14.88;37.78;95813.52;1761046;81;20219;-55
2021/05/07 05:28:27;;;;;;;;;;;;;;;15.42;36.08;95822.47;1756317;81;20220;-55
2021/05/07 05:30:54;;;;;;;;;;;;;;;16.01;34.41;95819.39;1756460;81;21370;-54
2021/05/07 05:33:22;;;;;;;;;;;;;;;16.55;33.57;95824.69;1751768;81;20238;-54
2021/05/07 05:35:50;;;;;;;;;;;;;;;17.05;33.30;95823.66;1763109;81;20277;-54
2021/05/07 05:38:17;;;;;;;;;;;;;;;17.77;32.51;95821.94;1755387;81;20250;-54
2021/05/07 05:40:44;;;;;;;;;;;;;;;18.52;30.72;95819.16;1764337;81;20214;-55
2021/05/07 05:43:12;;;;;;;;;;;;;;;18.98;29.80;95809.94;1763680;81;21255;-55
2021/05/07 05:45:40;;;;;;;;;;;;;;;19.38;28.98;95805.72;1755138;81;20229;-55
2021/05/07 05:48:08;;;;;;;;;;;;;;;19.53;28.50;95794.67;1762924;81;20225;-54
2021/05/07 05:50:36;;;;;;;;;;;;;;;19.33;28.15;95797.56;1752522;81;20223;-54
2021/05/07 05:53:04;;;;;;;;;;;;;;;19.05;28.20;95803.45;1762964;80;20238;-54
2021/05/07 05:55:32;;;;;;;;;;;;;;;18.62;28.96;95784.77;1763163;81;21151;-54
2021/05/07 05:58:00;;;;;;;;;;;;;;;18.39;29.81;95779.88;1761014;81;20605;-55
2021/05/07 06:00:28;;;;;;;;;;;;;;;18.80;29.93;95783.12;1755626;81;20285;-55
2021/05/07 06:02:55;;;;;;;;;;;;;;;19.36;28.22;95778.28;1763215;81;20217;-55
2021/05/07 06:05:23;;;;;;;;;;;;;;;19.71;28.57;95782.44;1758524;81;20214;-55
2021/05/07 06:07:51;;;;;;;;;;;;;;;20.31;27.85;95791.00;1753521;81;21473;-55
2021/05/07 06:10:20;;;;;;;;;;;;;;;20.32;26.86;95791.80;1759873;81;20309;-55
2021/05/07 06:12:48;;;;;;;;;;;;;;;19.48;27.44;95783.89;1758330;81;20230;-55
2021/05/07 06:15:19;;;;;;;;;;;;;;;18.47;28.90;95781.62;1758768;81;20242;-55
2021/05/07 06:17:46;;;;;;;;;;;;;;;17.88;30.14;95786.63;1749227;81;20495;-54
2021/05/07 06:22:58;;;;;;;;;;;;;;;17.54;30.70;95785.97;1744504;81;20291;-54
2021/05/07 06:25:26;;;;;;;;;;;;;;;17.57;31.01;95785.63;1717176;81;20220;-54
2021/05/07 06:27:55;;;;;;;;;;;;;;;17.39;31.08;95779.31;1739713;81;21201;-54
2021/05/07 06:30:23;;;;;;;;;;;;;;;17.06;31.22;95780.75;1741484;81;20513;-54
2021/05/07 06:32:51;;;;;;;;;;;;;;;16.53;32.32;95780.33;1735596;81;21214;-53
2021/05/07 06:35:19;;;;;;;;;;;;;;;16.20;32.83;95779.53;1736918;81;20490;-55
2021/05/07 06:37:46;;;;;;;;;;;;;;;15.91;33.49;95776.06;1742678;80;20511;-55
2021/05/07 06:40:14;;;;;;;;;;;;;;;15.81;33.97;95779.63;1741103;81;22113;-55
2021/05/07 06:42:42;;;;;;;;;;;;;;;15.75;34.05;95779.42;1746905;80;20240;-54
2021/05/07 06:45:10;;;;;;;;;;;;;;;15.56;34.17;95776.12;1751120;80;22562;-54
2021/05/07 06:47:38;;;;;;;;;;;;;;;15.41;34.36;95775.07;1697793;83;20304;-54
2021/05/07 06:50:07;;;;;;;;;;;;;;;15.33;34.46;95778.96;1723826;82;20238;-54
2021/05/07 06:52:35;;;;;;;;;;;;;;;15.24;35.12;95768.97;1711241;82;20276;-54
2021/05/07 06:55:04;;;;;;;;;;;;;;;15.05;35.40;95766.94;1713372;82;20233;-54
2021/05/07 06:57:31;;;;;;;;;;;;;;;14.89;36.10;95772.89;1717369;82;21218;-55
2021/05/07 06:59:58;;;;;;;;;;;;;;;14.87;36.66;95769.63;1719145;82;20228;-54
2021/05/07 07:02:40;;;;;;;;;;;;;;;14.82;36.25;95761.91;1659651;85;20507;-54
2021/05/07 07:05:09;;;;;;;;;;;;;;;14.76;36.39;95759.93;1660874;85;20712;-53
2021/05/07 07:07:37;;;;;;;;;;;;;;;14.72;36.76;95759.42;1660045;85;20556;-54
2021/05/07 07:10:08;;;;;;;;;;;;;;;14.80;37.29;95757.33;1659390;85;21452;-55
2021/05/07 07:12:35;;;;;;;;;;;;;;;14.90;37.15;95746.28;1660497;85;20225;-54
2021/05/07 07:15:05;;;;;;;;;;;;;;;15.07;37.49;95725.80;1661875;85;20289;-53
2021/05/07 07:17:33;;;;;;;;;;;;;;;15.27;37.46;95728.16;1659382;85;20330;-54
2021/05/07 07:20:02;;;;;;;;;;;;;;;15.43;37.10;95730.01;1662876;85;20256;-54
2021/05/07 07:22:41;;;;;;;;;;;;;;;15.58;35.96;95721.86;1662673;85;21399;-55
2021/05/07 07:25:51;;;;;;;;;;;;;;;15.67;36.39;95721.38;1661467;85;20633;-55
2021/05/07 07:28:47;;;;;;;;;;;;;;;15.77;36.07;95728.64;1630640;86;20244;-54
2021/05/07 07:32:22;;;;;;;;;;;;;;;16.11;36.36;95730.27;1626995;86;20310;-54
2021/05/07 07:35:29;;;;;;;;;;;;;;;16.83;35.52;95724.79;1634018;86;20255;-55
2021/05/07 07:38:19;;;;;;;;;;;;;;;17.09;34.21;95721.45;1600185;88;22341;-54
2021/05/07 07:41:16;;;;;;;;;;;;;;;16.86;34.95;95732.34;1607117;88;20237;-53
2021/05/07 07:43:56;;;;;;;;;;;;;;;16.80;35.77;95732.48;1630465;86;20225;-55
2021/05/07 07:46:27;;;;;;;;;;;;;;;16.84;35.50;95730.33;1602937;88;20243;-55
2021/05/07 07:49:08;;;;;;;;;;;;;;;16.73;35.75;95736.77;1603831;88;20232;-55
2021/05/07 07:51:58;;;;;;;;;;;;;;;16.79;36.31;95741.81;1584654;87;21240;-55
2021/05/07 07:54:49;;;;;;;;;;;;;;;17.07;35.16;95739.63;1602344;88;22049;-55
2021/05/07 07:58:09;;;;;;;;;;;;;;;17.28;35.25;95747.72;1590965;88;20224;-55
2021/05/07 08:00:40;;;;;;;;;;;;;;;17.99;35.06;95736.38;1584992;87;20694;-54
2021/05/07 08:03:47;;;;;;;;;;;;;;;18.38;35.85;95727.53;1640099;85;20248;-55
2021/05/07 08:06:41;;;;;;;;;;;;;;;18.61;35.84;95727.47;1641443;85;21230;-53
2021/05/07 08:09:42;;;;;;;;;;;;;;;19.31;35.24;95709.64;1641407;85;20241;-54
2021/05/07 08:12:31;;;;;;;;;;;;;;;19.30;34.21;95726.41;1649212;85;20249;-54
2021/05/07 08:15:30;;;;;;;;;;;;;;;19.09;34.68;95716.64;1646235;84;20297;-54
2021/05/07 08:18:35;;;;;;;;;;;;;;;19.20;34.69;95703.02;1680972;84;20531;-55
2021/05/07 08:21:15;;;;;;;;;;;;;;;19.15;35.04;95726.43;1648749;85;20229;-53
2021/05/07 08:24:00;;;;;;;;;;;;;;;19.24;35.16;95738.97;1672336;84;20327;-55
2021/05/07 08:26:59;;;;;;;;;;;;;;;19.49;34.23;95723.71;1670180;84;20498;-54
2021/05/07 08:29:47;;;;;;;;;;;;;;;19.55;35.24;95705.04;1662649;84;20252;-54
2021/05/07 08:32:31;;;;;;;;;;;;;;;19.88;34.26;95723.83;1624479;87;20279;-53
2021/05/07 08:35:22;;;;;;;;;;;;;;;20.03;33.97;95721.96;1673029;84;21372;-54
2021/05/07 08:37:53;;;;;;;;;;;;;;;20.46;33.73;95704.45;1670450;84;20293;-54
2021/05/07 08:43:23;;;;;;;;;;;;;;;19.99;33.91;95702.27;1749240;79;20222;-55
2021/05/07 08:46:00;;;;;;;;;;;;;;;19.68;34.20;95712.56;1781409;79;21389;-54
2021/05/07 08:48:43;;;;;;;;;;;;;;;19.38;35.26;95721.05;1782390;80;20246;-55
2021/05/07 08:51:24;;;;;;;;;;;;;;;19.23;35.73;95695.28;1722360;81;20228;-53
2021/05/07 08:54:14;;;;;;;;;;;;;;;18.94;35.39;95726.65;1704231;83;20487;-55
2021/05/07 08:56:56;;;;;;;;;;;;;;;18.33;37.12;95728.56;1718657;83;20541;-55
2021/05/07 08:59:33;;;;;;;;;;;;;;;17.97;37.77;95728.67;1687996;83;21227;-54
2021/05/07 09:02:07;;;;;;;;;;;;;;;17.69;38.31;95734.09;1738556;81;20224;-54
2021/05/07 09:04:45;;;;;;;;;;;;;;;17.44;39.16;95715.88;1744765;81;20285;-55
2021/05/07 09:07:20;;;;;;;;;;;;;;;17.56;39.18;95722.34;1736336;81;20231;-55
2021/05/07 09:10:20;;;;;;;;;;;;;;;17.87;37.89;95719.38;1737746;82;20247;-55
2021/05/07 09:13:28;;;;;;;;;;;;;;;17.88;38.21;95705.28;1727088;81;20227;-54
2021/05/07 09:16:12;;;;;;;;;;;;;;;17.70;38.87;95712.09;1716219;83;20263;-54
2021/05/07 09:18:46;;;;;;;;;;;;;;;17.71;38.77;95712.43;1748813;82;20245;-54
2021/05/07 09:21:15;;;;;;;;;;;;;;;17.92;38.37;95710.02;1701261;83;20235;-53
2021/05/07 09:23:51;;;;;;;;;;;;;;;17.96;38.30;95709.16;1740456;82;20217;-54
2021/05/07 09:26:19;;;;;;;;;;;;;;;17.87;38.88;95718.07;1724559;83;20670;-55
2021/05/07 09:28:51;;;;;;;;;;;;;;;17.76;38.62;95713.56;1729396;82;20236;-55
2021/05/07 09:31:19;;;;;;;;;;;;;;;17.59;39.30;95718.58;1715734;83;20225;-55
2021/05/07 09:33:58;;;;;;;;;;;;;;;17.38;40.01;95722.61;1716143;83;20246;-55
2021/05/07 09:36:27;;;;;;;;;;;;;;;17.20;40.75;95711.56;1723503;83;20266;-54
2021/05/07 09:38:56;;;;;;;;;;;;;;;16.99;40.58;95725.23;1718312;83;21378;-54
2021/05/07 09:41:27;;;;;;;;;;;;;;;16.66;41.31;95722.21;1701188;83;20506;-54
2021/05/07 09:43:55;;;;;;;;;;;;;;;16.51;42.35;95721.23;1706309;82;20222;-54
2021/05/07 09:46:32;;;;;;;;;;;;;;;16.39;42.59;95727.32;1734671;82;20224;-54
2021/05/07 09:49:27;;;;;;;;;;;;;;;16.26;42.84;95734.36;1626063;87;20314;-54
2021/05/07 09:51:57;;;;;;;;;;;;;;;16.21;43.15;95732.73;1619611;87;22204;-54
2021/05/07 09:54:39;;;;;;;;;;;;;;;16.13;43.45;95735.34;1621677;87;20265;-55
2021/05/07 09:57:14;;;;;;;;;;;;;;;15.97;43.74;95734.38;1601705;87;20260;-55
2021/05/07 10:00:07;;;;;;;;;;;;;;;15.88;44.07;95732.72;1628951;86;20255;-54
2021/05/07 10:02:36;;;;;;;;;;;;;;;15.73;44.62;95731.20;1626801;87;20551;-54
2021/05/07 10:05:05;;;;;;;;;;;;;;;15.65;44.67;95746.88;1653226;85;21223;-54
2021/05/07 10:07:32;;;;;;;;;;;;;;;15.51;44.76;95747.02;1654839;85;20447;-54
2021/05/07 10:10:04;;;;;;;;;;;;;;;15.32;45.13;95757.73;1656262;85;20248;-52
2021/05/07 10:12:35;;;;;;;;;;;;;;;15.18;45.85;95757.84;1649939;85;20501;-54
2021/05/07 10:15:04;;;;;;;;;;;;;;;15.01;46.00;95766.09;1653287;85;20229;-54
2021/05/07 10:17:31;;;;;;;;;;;;;;;14.85;46.10;95761.13;1663625;85;21340;-55
2021/05/07 10:20:00;;;;;;;;;;;;;;;14.78;46.50;95771.84;1658867;85;20238;-56
2021/05/07 10:22:41;;;;;;;;;;;;;;;14.71;46.59;95772.95;1651008;85;20258;-55
2021/05/07 10:25:15;;;;;;;;;;;;;;;14.61;46.58;95775.34;1622504;87;20532;-55
2021/05/07 10:27:44;;;;;;;;;;;;;;;14.49;47.01;95784.70;1590913;88;20549;-55
2021/05/07 10:30:28;;;;;;;;;;;;;;;14.40;47.38;95777.77;1592563;89;21155;-56
2021/05/07 10:33:04;;;;;;;;;;;;;;;14.30;47.99;95771.33;1602362;88;20662;-55
2021/05/07 10:35:35;;;;;;;;;;;;;;;14.21;48.12;95787.91;1593032;88;20228;-56
2021/05/07 10:38:07;;;;;;;;;;;;;;;14.22;48.28;95782.20;1590008;88;20514;-56
2021/05/07 10:40:34;;;;;;;;;;;;;;;14.17;48.21;95789.16;1635955;87;20250;-56
2021/05/07 10:43:01;;;;;;;;;;;;;;;14.14;48.87;95790.77;1616903;87;21176;-54
2021/05/07 10:45:53;;;;;;;;;;;;;;;14.09;49.11;95787.30;1618553;87;20279;-55
2021/05/07 10:48:27;;;;;;;;;;;;;;;14.02;49.38;95798.50;1629167;87;20509;-56
2021/05/07 10:50:57;;;;;;;;;;;;;;;13.92;50.05;95794.66;1673336;84;20245;-56
2021/05/07 10:53:27;;;;;;;;;;;;;;;13.84;50.39;95801.09;1675004;84;20265;-55
2021/05/07 10:55:55;;;;;;;;;;;;;;;13.79;51.00;95805.44;1621382;86;21222;-55
2021/05/07 10:58:30;;;;;;;;;;;;;;;13.73;51.27;95807.32;1673222;85;20765;-55
2021/05/07 11:01:04;;;;;;;;;;;;;;;13.69;50.84;95795.56;1644841;85;20308;-56
2021/05/07 11:03:33;;;;;;;;;;;;;;;13.63;50.82;95800.86;1654228;85;20281;-54
2021/05/07 11:06:01;;;;;;;;;;;;;;;13.55;50.97;95809.89;1654876;85;20221;-53
2021/05/07 11:08:32;;;;;;;;;;;;;;;13.51;51.27;95806.77;1657174;85;21239;-54
2021/05/07 11:11:00;;;;;;;;;;;;;;;13.52;51.36;95814.94;1661231;85;20230;-55
2021/05/07 11:13:27;;;;;;;;;;;;;;;13.52;51.22;95818.00;1655346;85;20224;-55
2021/05/07 11:16:01;;;;;;;;;;;;;;;13.49;51.67;95820.43;1654635;85;20501;-56
2021/05/07 11:18:32;;;;;;;;;;;;;;;13.42;52.54;95814.14;1674317;84;20218;-55
2021/05/07 11:21:13;;;;;;;;;;;;;;;13.38;52.48;95808.89;1681268;84;22144;-54
2021/05/07 11:23:44;;;;;;;;;;;;;;;13.31;52.83;95807.81;1673101;84;20230;-56
2021/05/07 11:26:11;;;;;;;;;;;;;;;13.27;52.96;95812.47;1683659;84;20298;-54
2021/05/07 11:28:41;;;;;;;;;;;;;;;13.26;53.04;95827.78;1684516;84;20264;-54
2021/05/07 11:31:09;;;;;;;;;;;;;;;13.18;53.24;95821.97;1681459;84;20383;-55
2021/05/07 11:33:36;;;;;;;;;;;;;;;13.12;53.05;95818.63;1676103;84;21359;-55
2021/05/07 11:36:07;;;;;;;;;;;;;;;13.03;53.02;95826.83;1677004;85;20467;-53
2021/05/07 11:38:38;;;;;;;;;;;;;;;13.00;53.56;95816.69;1676943;83;20237;-54
2021/05/07 11:41:19;;;;;;;;;;;;;;;13.01;53.89;95830.06;1680081;84;20291;-55
2021/05/07 11:43:49;;;;;;;;;;;;;;;13.02;54.34;95821.27;1652242;84;20521;-54
2021/05/07 11:46:16;;;;;;;;;;;;;;;13.06;54.58;95821.34;1671771;84;22280;-54
2021/05/07 11:48:49;;;;;;;;;;;;;;;13.13;54.97;95812.95;1661901;85;20235;-54
2021/05/07 11:51:18;;;;;;;;;;;;;;;13.17;54.78;95813.00;1673927;84;20498;-54
2021/05/07 11:53:46;;;;;;;;;;;;;;;13.14;55.42;95813.28;1666350;84;20475;-55
2021/05/07 11:56:23;;;;;;;;;;;;;;;13.09;55.35;95824.12;1661882;84;20242;-55
2021/05/07 11:58:51;;;;;;;;;;;;;;;13.11;55.74;95824.82;1682854;84;21375;-56
2021/05/07 12:01:19;;;;;;;;;;;;;;;13.13;55.59;95819.47;1670155;84;20237;-54
2021/05/07 12:03:48;;;;;;;;;;;;;;;13.08;55.77;95815.98;1668982;84;20544;-54
2021/05/07 12:06:20;;;;;;;;;;;;;;;13.05;56.83;95805.36;1654751;84;20290;-54
2021/05/07 12:08:49;;;;;;;;;;;;;;;13.06;57.35;95809.61;1669120;84;20524;-55
2021/05/07 12:11:18;;;;;;;;;;;;;;;12.96;57.70;95807.99;1670820;84;21300;-54
2021/05/07 12:13:47;;;;;;;;;;;;;;;12.84;58.07;95802.95;1683787;84;20300;-55
2021/05/07 12:16:15;;;;;;;;;;;;;;;12.78;58.56;95805.30;1661768;84;20229;-55
2021/05/07 12:18:51;;;;;;;;;;;;;;;12.74;58.42;95803.95;1684160;84;20521;-54
2021/05/07 12:21:20;;;;;;;;;;;;;;;12.76;58.67;95806.74;1677061;84;20235;-54
2021/05/07 12:23:49;;;;;;;;;;;;;;;12.82;58.55;95805.38;1673637;84;22011;-54
2021/05/07 12:28:58;;;;;;;;;;;;;;;13.09;57.58;95803.28;1728017;81;20532;-53
2021/05/07 12:31:30;;;;;;;;;;;;;;;13.22;56.83;95790.78;1732557;81;20273;-54
2021/05/07 12:33:57;;;;;;;;;;;;;;;13.31;56.77;95792.99;1718270;81;20449;-54
2021/05/07 12:36:25;;;;;;;;;;;;;;;13.31;56.14;95792.18;1729396;81;21386;-54
2021/05/07 12:38:58;;;;;;;;;;;;;;;13.26;56.42;95790.81;1711019;81;20270;-53
2021/05/07 12:41:27;;;;;;;;;;;;;;;13.24;56.03;95782.83;1729918;82;20264;-54
2021/05/07 12:43:56;;;;;;;;;;;;;;;13.17;56.98;95784.34;1717715;82;20935;-54
2021/05/07 12:46:24;;;;;;;;;;;;;;;13.19;56.74;95758.50;1716642;82;20289;-54
2021/05/07 12:48:55;;;;;;;;;;;;;;;13.09;55.96;95788.96;1674984;84;21200;-54
2021/05/07 12:51:24;;;;;;;;;;;;;;;12.97;56.38;95786.21;1659748;85;20415;-53
2021/05/07 12:53:52;;;;;;;;;;;;;;;12.87;56.91;95784.94;1650362;85;20229;-54
2021/05/07 12:56:23;;;;;;;;;;;;;;;12.83;56.43;95788.80;1674898;85;20279;-54
2021/05/07 12:58:51;;;;;;;;;;;;;;;12.81;56.85;95782.89;1667973;84;20298;-54
2021/05/07 13:01:20;;;;;;;;;;;;;;;12.69;55.93;95787.45;1668166;84;22006;-54
2021/05/07 13:03:47;;;;;;;;;;;;;;;12.49;57.13;95792.70;1690720;83;20298;-53
2021/05/07 13:06:16;;;;;;;;;;;;;;;12.34;57.61;95791.50;1676810;84;20287;-54
2021/05/07 13:08:47;;;;;;;;;;;;;;;12.19;58.37;95793.70;1669116;84;20311;-54
2021/05/07 13:11:25;;;;;;;;;;;;;;;12.04;59.42;95785.50;1649842;84;20599;-54
2021/05/07 13:13:54;;;;;;;;;;;;;;;11.91;59.89;95791.42;1674739;85;21204;-54
2021/05/07 13:16:22;;;;;;;;;;;;;;;11.78;60.76;95785.18;1670529;84;20237;-54
2021/05/07 13:18:53;;;;;;;;;;;;;;;11.71;60.99;95785.36;1637871;85;20300;-55